Lady Mary — WCY4834 — position and weather

sailwx.info

Track history (hours):
 
Tides and Currents Weather Stations Pressure Air Temp Water Temp Dewpoint Dewpoint Depression Visibility Wind Speed Wind Dir Waves Ship Positions

Lady Mary

Owner: BLACKMAN, JOHN H, SEATTLE, WA. More information available from US FCC via Universal Licensing System and Coast Guard Vessel Documentation Center.

Last reported at 2015-Jul-03 19:26 UTC. Time now 2015-Jul-03 20:23 UTC.
Position N 47°37' W 122°21'.

Length 26 m.

Type: Passenger vessel. MMSI: 367013060.

Date/timePositionNaut miles runAvg speedWind from/ knotsBaromVisibWave heightAir tempDewpointWater temp
2015-Jul-03 19:26N 47°37' W 122°21'0 0.0
2015-Jul-03 18:31N 47°37' W 122°21'4 3.6
2015-Jul-03 17:21N 47°39' W 122°26'6 3.2
2015-Jul-03 15:28N 47°39' W 122°17'4 3.8
2015-Jul-03 14:33N 47°40' W 122°13'0 0.0
2015-Jul-03 13:33N 47°40' W 122°13'0 0.0
2015-Jul-03 12:28N 47°40' W 122°13'0 0.0
2015-Jul-03 11:29N 47°40' W 122°13'0 0.0
2015-Jul-03 10:17N 47°40' W 122°13'0 0.0
2015-Jul-03 09:30N 47°40' W 122°13'0 0.0
2015-Jul-03 08:31N 47°40' W 122°13'0 0.0
2015-Jul-03 06:08N 47°40' W 122°13'0 0.0
2015-Jul-03 05:33N 47°40' W 122°13'0 0.0
2015-Jul-03 04:27N 47°40' W 122°13'0 0.0
2015-Jul-03 03:22N 47°40' W 122°13'0 0.0
2015-Jul-03 02:17N 47°40' W 122°13'0 0.0
2015-Jul-03 01:23N 47°40' W 122°13'0 0.0
2015-Jul-03 00:29N 47°40' W 122°13'4 3.4
2015-Jul-02 23:24N 47°38' W 122°16'4 4.0
2015-Jul-02 22:28N 47°40' W 122°13'3 3.2
2015-Jul-02 21:33N 47°39' W 122°16'3 2.3
2015-Jul-02 20:18N 47°40' W 122°13'0 0.0
2015-Jul-02 17:11N 47°40' W 122°13'0 0.0
2015-Jul-02 16:20N 47°40' W 122°13'0 0.0
2015-Jul-02 15:15N 47°40' W 122°13'0 0.0
2015-Jul-02 14:28N 47°40' W 122°13'0 0.0
2015-Jul-02 13:28N 47°40' W 122°13'0 0.0
2015-Jul-02 12:29N 47°40' W 122°13'0 0.0
2015-Jul-02 11:24N 47°40' W 122°13'0 0.0
2015-Jul-02 10:24N 47°40' W 122°13'0 0.0
2015-Jul-02 09:31N 47°40' W 122°13'1 0.8
2015-Jul-02 08:33N 47°40' W 122°13'5 2.6
2015-Jul-02 06:33N 47°38' W 122°20'1 1.3
2015-Jul-02 05:33N 47°39' W 122°21'1 1.3
2015-Jul-02 04:33N 47°38' W 122°20'4 3.7
2015-Jul-02 03:29N 47°38' W 122°15'2 1.6
2015-Jul-02 02:21N 47°39' W 122°17'2 2.9
2015-Jul-02 01:32N 47°38' W 122°20'2 1.9
2015-Jul-02 00:33N 47°39' W 122°18'4 4.1
2015-Jul-01 23:33N 47°40' W 122°13'0 0.0
2015-Jul-01 22:32N 47°40' W 122°13'4 3.4
2015-Jul-01 21:30N 47°38' W 122°16'4 3.7
2015-Jul-01 20:33N 47°40' W 122°13'0 0.0
2015-Jul-01 19:33N 47°40' W 122°13'0 0.0
2015-Jul-01 18:33N 47°40' W 122°13'0 0.0
2015-Jul-01 17:33N 47°40' W 122°13'0 0.0
2015-Jul-01 16:33N 47°40' W 122°13'0 0.0
2015-Jul-01 15:32N 47°40' W 122°13'0 0.0
2015-Jul-01 14:33N 47°40' W 122°13'0 0.0
2015-Jul-01 13:32N 47°40' W 122°13'0 0.0
2015-Jul-01 12:33N 47°40' W 122°13'0 0.0
2015-Jul-01 11:33N 47°40' W 122°13'0 0.0
2015-Jul-01 10:33N 47°40' W 122°13'0 0.0
2015-Jul-01 09:32N 47°40' W 122°13'0 0.0
2015-Jul-01 08:33N 47°40' W 122°13'0 0.0
2015-Jul-01 07:33N 47°40' W 122°13'0 0.0
2015-Jul-01 06:32N 47°40' W 122°13'0 0.0
2015-Jul-01 05:33N 47°40' W 122°13'0 0.0
2015-Jul-01 04:31N 47°40' W 122°13'0 0.0
2015-Jul-01 03:32N 47°40' W 122°13'0 0.0
2015-Jul-01 02:33N 47°40' W 122°13'0 0.0
2015-Jul-01 01:33N 47°40' W 122°13'0 0.0
2015-Jul-01 00:33N 47°40' W 122°13'2 2.5
2015-Jun-30 23:53N 47°40' W 122°15'2 5.9
2015-Jun-30 23:31N 47°38' W 122°16'0 7.5
2015-Jun-30 23:27N 47°37' W 122°16'4 4.1
2015-Jun-30 22:33N 47°40' W 122°13'2 2.0
2015-Jun-30 21:46N 47°40' W 122°15'2 8.7
2015-Jun-30 21:32N 47°39' W 122°17'2 5.6
2015-Jun-30 21:11N 47°37' W 122°15'4 5.7
2015-Jun-30 20:32N 47°40' W 122°13'0 0.0
2015-Jun-30 19:33N 47°40' W 122°13'0 0.0
2015-Jun-30 19:10N 47°40' W 122°13'0 0.0
2015-Jun-30 18:32N 47°40' W 122°13'0 0.0
2015-Jun-30 17:44N 47°40' W 122°13'0 0.0
2015-Jun-30 17:33N 47°40' W 122°13'0 0.0
2015-Jun-30 16:33N 47°40' W 122°13'0 0.0
2015-Jun-30 15:33N 47°40' W 122°13'0 0.0
2015-Jun-30 14:33N 47°40' W 122°13'0 0.0
2015-Jun-30 13:33N 47°40' W 122°13'0 0.0
2015-Jun-30 13:06N 47°40' W 122°13'0 0.0
2015-Jun-30 12:32N 47°40' W 122°13'0 0.0
2015-Jun-30 11:33N 47°40' W 122°13'0 0.0
2015-Jun-30 10:49N 47°40' W 122°13'0 0.0
2015-Jun-30 10:33N 47°40' W 122°13'0 0.0
2015-Jun-30 09:33N 47°40' W 122°13'0 0.0
2015-Jun-30 09:03N 47°40' W 122°13'0 0.0
2015-Jun-30 08:32N 47°40' W 122°13'0 0.0
2015-Jun-30 08:07N 47°40' W 122°13'0 0.0
2015-Jun-30 07:33N 47°40' W 122°13'0 0.0
2015-Jun-30 07:02N 47°40' W 122°13'0 0.0
2015-Jun-30 06:32N 47°40' W 122°13'0 0.0
2015-Jun-30 06:22N 47°40' W 122°13'0 0.0
2015-Jun-30 06:02N 47°40' W 122°13'0 0.0
2015-Jun-30 05:33N 47°40' W 122°13'0 0.0
2015-Jun-30 04:33N 47°40' W 122°13'0 0.0
2015-Jun-30 04:16N 47°40' W 122°13'0 0.0
2015-Jun-30 03:33N 47°40' W 122°13'0 0.0
2015-Jun-30 02:33N 47°40' W 122°13'0 0.0
2015-Jun-30 01:32N 47°40' W 122°13'0 0.0
2015-Jun-30 00:33N 47°40' W 122°13'0 0.8
2015-Jun-29 23:58N 47°40' W 122°13'4 7.7
2015-Jun-29 23:30N 47°38' W 122°17'0 0.0
2015-Jun-29 23:30N 47°38' W 122°17'4 4.1
2015-Jun-29 22:32N 47°40' W 122°13'0 0.2
2015-Jun-29 22:14N 47°40' W 122°13'4 5.8
2015-Jun-29 21:33N 47°37' W 122°16'1 6.4
2015-Jun-29 21:23N 47°37' W 122°15'4 5.0
2015-Jun-29 20:32N 47°40' W 122°13'0 0.0
2015-Jun-29 20:28N 47°40' W 122°13'0 0.0
2015-Jun-29 19:33N 47°40' W 122°13'0 0.0
2015-Jun-29 18:56N 47°40' W 122°13'0 0.0
2015-Jun-29 18:33N 47°40' W 122°13'0 0.0
2015-Jun-29 18:12N 47°40' W 122°13'4 5.3
2015-Jun-29 17:33N 47°39' W 122°17'1 6.9
2015-Jun-29 17:22N 47°39' W 122°19'1 1.5
2015-Jun-29 16:33N 47°39' W 122°21'0 0.0
2015-Jun-29 16:32N 47°39' W 122°21'5 4.8
2015-Jun-29 15:33N 47°40' W 122°14'1 1.1
2015-Jun-29 14:33N 47°40' W 122°13'0 0.0
2015-Jun-29 13:33N 47°40' W 122°13'0 0.0
2015-Jun-29 13:11N 47°40' W 122°13'0 0.0
2015-Jun-29 12:33N 47°40' W 122°13'0 0.0
2015-Jun-29 11:33N 47°40' W 122°13'0 0.0
2015-Jun-29 10:33N 47°40' W 122°13'0 0.0
2015-Jun-29 09:33N 47°40' W 122°13'0 0.0
2015-Jun-29 08:33N 47°40' W 122°13'0 0.0
2015-Jun-29 07:33N 47°40' W 122°13'0 0.0
2015-Jun-29 06:33N 47°40' W 122°13'0 0.0
2015-Jun-29 05:33N 47°40' W 122°13'0 0.0
2015-Jun-29 04:33N 47°40' W 122°13'0 0.0
2015-Jun-29 03:33N 47°40' W 122°13'0 0.0
2015-Jun-29 02:33N 47°40' W 122°13'0 0.0
2015-Jun-29 01:32N 47°40' W 122°13'0 0.0
2015-Jun-29 00:33N 47°40' W 122°13'3 3.2
2015-Jun-28 23:31N 47°38' W 122°16'3 3.4
2015-Jun-28 22:33N 47°40' W 122°13'4 3.2
2015-Jun-28 21:24N 47°38' W 122°16'4 4.4
2015-Jun-28 20:33N 47°40' W 122°13'3 3.1
2015-Jun-28 19:33N 47°39' W 122°16'3 3.1
2015-Jun-28 18:33N 47°40' W 122°13'0 0.0
2015-Jun-28 17:33N 47°40' W 122°13'0 0.0
2015-Jun-28 16:32N 47°40' W 122°13'0 0.0
2015-Jun-28 15:33N 47°40' W 122°13'0 0.0
2015-Jun-28 14:32N 47°40' W 122°13'0 0.0
2015-Jun-28 13:33N 47°40' W 122°13'0 0.0
2015-Jun-28 12:33N 47°40' W 122°13'0 0.0
2015-Jun-28 11:33N 47°40' W 122°13'0 0.0
2015-Jun-28 10:33N 47°40' W 122°13'0 0.0
2015-Jun-28 09:33N 47°40' W 122°13'0 0.0
2015-Jun-28 08:33N 47°40' W 122°13'0 0.0
2015-Jun-28 07:31N 47°40' W 122°13'0 0.0
2015-Jun-28 06:31N 47°40' W 122°13'1 1.1
2015-Jun-28 05:33N 47°39' W 122°13'4 5.5
2015-Jun-28 04:47N 47°39' W 122°19'1 3.2
2015-Jun-28 04:33N 47°39' W 122°20'0 2.9
2015-Jun-28 04:31N 47°38' W 122°20'1 0.7
2015-Jun-28 03:33N 47°39' W 122°20'1 5.4
2015-Jun-28 03:20N 47°39' W 122°18'2 2.7
2015-Jun-28 02:31N 47°39' W 122°15'0 5.7
2015-Jun-28 02:30N 47°39' W 122°15'2 2.4
2015-Jun-28 01:33N 47°40' W 122°13'0 0.0
2015-Jun-28 00:33N 47°40' W 122°13'0 0.4
2015-Jun-27 23:59N 47°40' W 122°13'3 7.5
2015-Jun-27 23:33N 47°38' W 122°16'1 8.3
2015-Jun-27 23:23N 47°37' W 122°15'4 4.6
2015-Jun-27 22:33N 47°40' W 122°13'1 1.5
2015-Jun-27 21:57N 47°40' W 122°14'3 6.8
2015-Jun-27 21:33N 47°38' W 122°16'032.4
2015-Jun-27 21:33N 47°38' W 122°16'4 3.3
2015-Jun-27 20:31N 47°40' W 122°13'0 0.0
2015-Jun-27 20:22N 47°40' W 122°13'4 4.0
2015-Jun-27 19:27N 47°38' W 122°16'1 8.8
2015-Jun-27 19:21N 47°37' W 122°15'4 4.6
2015-Jun-27 18:33N 47°40' W 122°13'0 0.0
2015-Jun-27 17:12N 47°40' W 122°13'0 0.0
2015-Jun-27 16:33N 47°40' W 122°13'0 0.0
2015-Jun-27 15:33N 47°40' W 122°13'0 0.0
2015-Jun-27 14:33N 47°40' W 122°13'0 0.0
2015-Jun-27 13:33N 47°40' W 122°13'0 0.0
2015-Jun-27 12:33N 47°40' W 122°13'0 0.0
2015-Jun-27 11:33N 47°40' W 122°13'0 0.0
2015-Jun-27 10:33N 47°40' W 122°13'0 0.0
2015-Jun-27 09:33N 47°40' W 122°13'0 0.0
2015-Jun-27 08:33N 47°40' W 122°13'0 0.0
2015-Jun-27 07:33N 47°40' W 122°13'0 0.0
2015-Jun-27 06:33N 47°40' W 122°13'0 0.0
2015-Jun-27 05:33N 47°40' W 122°13'0 0.0
2015-Jun-27 04:33N 47°40' W 122°13'0 0.0
2015-Jun-27 03:32N 47°40' W 122°13'0 0.0
2015-Jun-27 02:33N 47°40' W 122°13'0 0.0
2015-Jun-27 01:33N 47°40' W 122°13'0 0.0
2015-Jun-27 00:33N 47°40' W 122°13'0 0.0
2015-Jun-26 23:33N 47°40' W 122°13'0 0.0
2015-Jun-26 22:33N 47°40' W 122°13'0 0.4
2015-Jun-26 22:14N 47°40' W 122°13'4 5.6
2015-Jun-26 21:33N 47°37' W 122°15'1 8.5
2015-Jun-26 21:29N 47°36' W 122°14'4 4.5
2015-Jun-26 20:33N 47°40' W 122°13'0 0.0
2015-Jun-26 19:33N 47°40' W 122°13'0 0.0
2015-Jun-26 18:31N 47°40' W 122°13'0 0.0
2015-Jun-26 17:33N 47°40' W 122°13'0 0.0
2015-Jun-26 16:33N 47°40' W 122°13'0 0.0
2015-Jun-26 15:33N 47°40' W 122°13'0 0.0
2015-Jun-26 14:33N 47°40' W 122°13'0 0.0
2015-Jun-26 13:33N 47°40' W 122°13'0 0.0
2015-Jun-26 12:33N 47°40' W 122°13'0 0.0
2015-Jun-26 11:33N 47°40' W 122°13'0 0.0
2015-Jun-26 10:33N 47°40' W 122°13'0 0.0
2015-Jun-26 10:06N 47°40' W 122°13'0 0.0
2015-Jun-26 09:33N 47°40' W 122°13'0 0.0
2015-Jun-26 08:33N 47°40' W 122°13'0 0.0
2015-Jun-26 07:31N 47°40' W 122°13'0 0.0
2015-Jun-26 06:49N 47°40' W 122°13'0 0.0
2015-Jun-26 06:32N 47°40' W 122°13'0 0.0
2015-Jun-26 06:23N 47°40' W 122°13'0 0.0
2015-Jun-26 05:33N 47°40' W 122°13'0 0.1
2015-Jun-26 04:33N 47°40' W 122°13'1 7.6
2015-Jun-26 04:27N 47°40' W 122°14'5 5.5
2015-Jun-26 03:33N 47°38' W 122°20'0 3.2
2015-Jun-26 03:31N 47°38' W 122°20'1 0.9
2015-Jun-26 02:33N 47°39' W 122°20'0 5.9
2015-Jun-26 02:31N 47°39' W 122°20'4 4.1
2015-Jun-26 01:31N 47°37' W 122°14'0 7.4
2015-Jun-26 01:30N 47°37' W 122°15'4 4.0
2015-Jun-26 00:33N 47°38' W 122°20'0 0.8
2015-Jun-26 00:14N 47°38' W 122°20'0 0.0
2015-Jun-25 23:22N 47°38' W 122°20'0 0.0
2015-Jun-25 23:18N 47°38' W 122°20'1 1.4
2015-Jun-25 22:32N 47°39' W 122°21'0 0.0
2015-Jun-25 22:32N 47°39' W 122°21'1 1.1
2015-Jun-25 21:32N 47°39' W 122°19'0 0.0
2015-Jun-25 21:32N 47°39' W 122°19'5 4.8
2015-Jun-25 20:33N 47°40' W 122°13'0 0.0
2015-Jun-25 20:29N 47°40' W 122°13'0 0.0
2015-Jun-25 19:32N 47°40' W 122°13'0 0.0
2015-Jun-25 18:33N 47°40' W 122°13'0 0.0
2015-Jun-25 17:33N 47°40' W 122°13'0 0.0
2015-Jun-25 17:12N 47°40' W 122°13'0 0.0
2015-Jun-25 16:32N 47°40' W 122°13'0 0.0
2015-Jun-25 16:02N 47°40' W 122°13'0 0.0
2015-Jun-25 15:33N 47°40' W 122°13'0 0.1
2015-Jun-25 15:28N 47°40' W 122°13'0 0.0
2015-Jun-25 14:33N 47°40' W 122°13'0 0.0
2015-Jun-25 14:27N 47°40' W 122°13'0 0.0
2015-Jun-25 13:33N 47°40' W 122°13'0 0.0
2015-Jun-25 13:30N 47°40' W 122°13'0 0.0
2015-Jun-25 12:16N 47°40' W 122°13'0 0.0
2015-Jun-25 11:59N 47°40' W 122°13'0 0.0
2015-Jun-25 11:33N 47°40' W 122°13'0 0.0
2015-Jun-25 11:20N 47°40' W 122°13'0 0.0
2015-Jun-25 10:33N 47°40' W 122°13'0 0.0
2015-Jun-25 10:24N 47°40' W 122°13'0 0.0
2015-Jun-25 09:33N 47°40' W 122°13'0 0.0
2015-Jun-25 09:28N 47°40' W 122°13'0 0.0
2015-Jun-25 08:33N 47°40' W 122°13'0 0.0
2015-Jun-25 08:29N 47°40' W 122°13'0 0.0
2015-Jun-25 07:33N 47°40' W 122°13'0 0.0
2015-Jun-25 07:13N 47°40' W 122°13'0 0.0
2015-Jun-25 06:32N 47°40' W 122°13'0 0.0
2015-Jun-25 06:32N 47°40' W 122°13'0 0.0
2015-Jun-25 05:33N 47°40' W 122°13'0 0.0
2015-Jun-25 05:27N 47°40' W 122°13'0 0.0
2015-Jun-25 04:32N 47°40' W 122°13'0 0.0
2015-Jun-25 04:21N 47°40' W 122°13'0 0.0
2015-Jun-25 03:33N 47°40' W 122°13'0 0.0
2015-Jun-25 03:24N 47°40' W 122°13'0 0.0
2015-Jun-25 02:33N 47°40' W 122°13'0 0.0
2015-Jun-25 01:59N 47°40' W 122°13'0 0.0
2015-Jun-25 01:33N 47°40' W 122°13'0 3.5
2015-Jun-25 01:28N 47°41' W 122°13'2 1.8
2015-Jun-25 00:32N 47°39' W 122°14'2 5.2
2015-Jun-25 00:11N 47°40' W 122°13'0 0.0
2015-Jun-24 23:33N 47°40' W 122°13'0 0.0
2015-Jun-24 22:51N 47°40' W 122°13'0 0.0
2015-Jun-24 22:33N 47°40' W 122°13'0 0.0
2015-Jun-24 22:00N 47°40' W 122°13'0 0.0
2015-Jun-24 21:31N 47°40' W 122°13'0 0.0
2015-Jun-24 20:33N 47°40' W 122°13'0 0.0
2015-Jun-24 19:32N 47°40' W 122°13'0 0.0
2015-Jun-24 18:33N 47°40' W 122°13'0 0.0
2015-Jun-24 17:38N 47°40' W 122°13'0 0.1
2015-Jun-24 17:33N 47°40' W 122°13'0 0.0
2015-Jun-24 16:33N 47°40' W 122°13'0 0.0
2015-Jun-24 15:36N 47°40' W 122°13'0 0.0
2015-Jun-24 15:33N 47°40' W 122°13'0 0.0
2015-Jun-24 15:16N 47°40' W 122°13'0 0.0
2015-Jun-24 14:33N 47°40' W 122°13'0 0.0
2015-Jun-24 14:15N 47°40' W 122°13'0 0.0
2015-Jun-24 13:33N 47°40' W 122°13'0 0.0
2015-Jun-24 12:44N 47°40' W 122°13'0 0.0
2015-Jun-24 12:33N 47°40' W 122°13'0 0.0
2015-Jun-24 12:14N 47°40' W 122°13'0 0.0
2015-Jun-24 11:33N 47°40' W 122°13'0 0.0
2015-Jun-24 11:29N 47°40' W 122°13'0 0.0
2015-Jun-24 10:33N 47°40' W 122°13'0 0.0
2015-Jun-24 10:23N 47°40' W 122°13'0 0.0
2015-Jun-24 09:32N 47°40' W 122°13'0 0.0
2015-Jun-24 08:33N 47°40' W 122°13'0 0.0
2015-Jun-24 08:27N 47°40' W 122°13'0 0.0
2015-Jun-24 07:33N 47°40' W 122°13'0 0.0
2015-Jun-24 07:26N 47°40' W 122°13'0 0.0
2015-Jun-24 06:33N 47°40' W 122°13'0 0.0
2015-Jun-24 05:33N 47°40' W 122°13'0 0.0
2015-Jun-24 04:32N 47°40' W 122°13'0 0.0
2015-Jun-24 03:33N 47°40' W 122°13'0 0.0
2015-Jun-24 02:33N 47°40' W 122°13'0 0.0
2015-Jun-24 01:33N 47°40' W 122°13'0 0.0
2015-Jun-24 00:33N 47°40' W 122°13'0 0.0
2015-Jun-24 00:25N 47°40' W 122°13'0 0.0
2015-Jun-23 23:33N 47°40' W 122°13'0 0.0
2015-Jun-23 22:50N 47°40' W 122°13'0 0.0
2015-Jun-23 22:33N 47°40' W 122°13'0 0.0
2015-Jun-23 21:30N 47°40' W 122°13'0 0.0
2015-Jun-23 20:33N 47°40' W 122°13'0 0.0
2015-Jun-23 19:33N 47°40' W 122°13'  
Track history (hours):
 
Tides and Currents Weather Stations Pressure Air Temp Water Temp Dewpoint Dewpoint Depression Visibility Wind Speed Wind Dir Waves Ship Positions

Lady Mary

Owner: BLACKMAN, JOHN H, SEATTLE, WA. More information available from US FCC via Universal Licensing System and Coast Guard Vessel Documentation Center.

Last reported at 2015-Jul-03 19:26 UTC. Time now 2015-Jul-03 20:23 UTC.
Position N 47°37' W 122°21'.

Length 26 m.

Type: Passenger vessel. MMSI: 367013060.

Date/timePositionNaut miles runAvg speedWind from/ knotsBaromVisibWave heightAir tempDewpointWater temp
2015-Jul-03 19:26N 47°37' W 122°21'0 0.0
2015-Jul-03 18:31N 47°37' W 122°21'4 3.6
2015-Jul-03 17:21N 47°39' W 122°26'6 3.2
2015-Jul-03 15:28N 47°39' W 122°17'4 3.8
2015-Jul-03 14:33N 47°40' W 122°13'0 0.0
2015-Jul-03 13:33N 47°40' W 122°13'0 0.0
2015-Jul-03 12:28N 47°40' W 122°13'0 0.0
2015-Jul-03 11:29N 47°40' W 122°13'0 0.0
2015-Jul-03 10:17N 47°40' W 122°13'0 0.0
2015-Jul-03 09:30N 47°40' W 122°13'0 0.0
2015-Jul-03 08:31N 47°40' W 122°13'0 0.0
2015-Jul-03 06:08N 47°40' W 122°13'0 0.0
2015-Jul-03 05:33N 47°40' W 122°13'0 0.0
2015-Jul-03 04:27N 47°40' W 122°13'0 0.0
2015-Jul-03 03:22N 47°40' W 122°13'0 0.0
2015-Jul-03 02:17N 47°40' W 122°13'0 0.0
2015-Jul-03 01:23N 47°40' W 122°13'0 0.0
2015-Jul-03 00:29N 47°40' W 122°13'4 3.4
2015-Jul-02 23:24N 47°38' W 122°16'4 4.0
2015-Jul-02 22:28N 47°40' W 122°13'3 3.2
2015-Jul-02 21:33N 47°39' W 122°16'3 2.3
2015-Jul-02 20:18N 47°40' W 122°13'0 0.0
2015-Jul-02 17:11N 47°40' W 122°13'0 0.0
2015-Jul-02 16:20N 47°40' W 122°13'0 0.0
2015-Jul-02 15:15N 47°40' W 122°13'0 0.0
2015-Jul-02 14:28N 47°40' W 122°13'0 0.0
2015-Jul-02 13:28N 47°40' W 122°13'0 0.0
2015-Jul-02 12:29N 47°40' W 122°13'0 0.0
2015-Jul-02 11:24N 47°40' W 122°13'0 0.0
2015-Jul-02 10:24N 47°40' W 122°13'0 0.0
2015-Jul-02 09:31N 47°40' W 122°13'1 0.8
2015-Jul-02 08:33N 47°40' W 122°13'5 2.6
2015-Jul-02 06:33N 47°38' W 122°20'1 1.3
2015-Jul-02 05:33N 47°39' W 122°21'1 1.3
2015-Jul-02 04:33N 47°38' W 122°20'4 3.7
2015-Jul-02 03:29N 47°38' W 122°15'2 1.6
2015-Jul-02 02:21N 47°39' W 122°17'2 2.9
2015-Jul-02 01:32N 47°38' W 122°20'2 1.9
2015-Jul-02 00:33N 47°39' W 122°18'4 4.1
2015-Jul-01 23:33N 47°40' W 122°13'0 0.0
2015-Jul-01 22:32N 47°40' W 122°13'4 3.4
2015-Jul-01 21:30N 47°38' W 122°16'4 3.7
2015-Jul-01 20:33N 47°40' W 122°13'0 0.0
2015-Jul-01 19:33N 47°40' W 122°13'0 0.0
2015-Jul-01 18:33N 47°40' W 122°13'0 0.0
2015-Jul-01 17:33N 47°40' W 122°13'0 0.0
2015-Jul-01 16:33N 47°40' W 122°13'0 0.0
2015-Jul-01 15:32N 47°40' W 122°13'0 0.0
2015-Jul-01 14:33N 47°40' W 122°13'0 0.0
2015-Jul-01 13:32N 47°40' W 122°13'0 0.0
2015-Jul-01 12:33N 47°40' W 122°13'0 0.0
2015-Jul-01 11:33N 47°40' W 122°13'0 0.0
2015-Jul-01 10:33N 47°40' W 122°13'0 0.0
2015-Jul-01 09:32N 47°40' W 122°13'0 0.0
2015-Jul-01 08:33N 47°40' W 122°13'0 0.0
2015-Jul-01 07:33N 47°40' W 122°13'0 0.0
2015-Jul-01 06:32N 47°40' W 122°13'0 0.0
2015-Jul-01 05:33N 47°40' W 122°13'0 0.0
2015-Jul-01 04:31N 47°40' W 122°13'0 0.0
2015-Jul-01 03:32N 47°40' W 122°13'0 0.0
2015-Jul-01 02:33N 47°40' W 122°13'0 0.0
2015-Jul-01 01:33N 47°40' W 122°13'0 0.0
2015-Jul-01 00:33N 47°40' W 122°13'2 2.5
2015-Jun-30 23:53N 47°40' W 122°15'2 5.9
2015-Jun-30 23:31N 47°38' W 122°16'0 7.5
2015-Jun-30 23:27N 47°37' W 122°16'4 4.1
2015-Jun-30 22:33N 47°40' W 122°13'2 2.0
2015-Jun-30 21:46N 47°40' W 122°15'2 8.7
2015-Jun-30 21:32N 47°39' W 122°17'2 5.6
2015-Jun-30 21:11N 47°37' W 122°15'4 5.7
2015-Jun-30 20:32N 47°40' W 122°13'0 0.0
2015-Jun-30 19:33N 47°40' W 122°13'0 0.0
2015-Jun-30 19:10N 47°40' W 122°13'0 0.0
2015-Jun-30 18:32N 47°40' W 122°13'0 0.0
2015-Jun-30 17:44N 47°40' W 122°13'0 0.0
2015-Jun-30 17:33N 47°40' W 122°13'0 0.0
2015-Jun-30 16:33N 47°40' W 122°13'0 0.0
2015-Jun-30 15:33N 47°40' W 122°13'0 0.0
2015-Jun-30 14:33N 47°40' W 122°13'0 0.0
2015-Jun-30 13:33N 47°40' W 122°13'0 0.0
2015-Jun-30 13:06N 47°40' W 122°13'0 0.0
2015-Jun-30 12:32N 47°40' W 122°13'0 0.0
2015-Jun-30 11:33N 47°40' W 122°13'0 0.0
2015-Jun-30 10:49N 47°40' W 122°13'0 0.0
2015-Jun-30 10:33N 47°40' W 122°13'0 0.0
2015-Jun-30 09:33N 47°40' W 122°13'0 0.0
2015-Jun-30 09:03N 47°40' W 122°13'0 0.0
2015-Jun-30 08:32N 47°40' W 122°13'0 0.0
2015-Jun-30 08:07N 47°40' W 122°13'0 0.0
2015-Jun-30 07:33N 47°40' W 122°13'0 0.0
2015-Jun-30 07:02N 47°40' W 122°13'0 0.0
2015-Jun-30 06:32N 47°40' W 122°13'0 0.0
2015-Jun-30 06:22N 47°40' W 122°13'0 0.0
2015-Jun-30 06:02N 47°40' W 122°13'0 0.0
2015-Jun-30 05:33N 47°40' W 122°13'0 0.0
2015-Jun-30 04:33N 47°40' W 122°13'0 0.0
2015-Jun-30 04:16N 47°40' W 122°13'0 0.0
2015-Jun-30 03:33N 47°40' W 122°13'0 0.0
2015-Jun-30 02:33N 47°40' W 122°13'0 0.0
2015-Jun-30 01:32N 47°40' W 122°13'0 0.0
2015-Jun-30 00:33N 47°40' W 122°13'0 0.8
2015-Jun-29 23:58N 47°40' W 122°13'4 7.7
2015-Jun-29 23:30N 47°38' W 122°17'0 0.0
2015-Jun-29 23:30N 47°38' W 122°17'4 4.1
2015-Jun-29 22:32N 47°40' W 122°13'0 0.2
2015-Jun-29 22:14N 47°40' W 122°13'4 5.8
2015-Jun-29 21:33N 47°37' W 122°16'1 6.4
2015-Jun-29 21:23N 47°37' W 122°15'4 5.0
2015-Jun-29 20:32N 47°40' W 122°13'0 0.0
2015-Jun-29 20:28N 47°40' W 122°13'0 0.0
2015-Jun-29 19:33N 47°40' W 122°13'0 0.0
2015-Jun-29 18:56N 47°40' W 122°13'0 0.0
2015-Jun-29 18:33N 47°40' W 122°13'0 0.0
2015-Jun-29 18:12N 47°40' W 122°13'4 5.3
2015-Jun-29 17:33N 47°39' W 122°17'1 6.9
2015-Jun-29 17:22N 47°39' W 122°19'1 1.5
2015-Jun-29 16:33N 47°39' W 122°21'0 0.0
2015-Jun-29 16:32N 47°39' W 122°21'5 4.8
2015-Jun-29 15:33N 47°40' W 122°14'1 1.1
2015-Jun-29 14:33N 47°40' W 122°13'0 0.0
2015-Jun-29 13:33N 47°40' W 122°13'0 0.0
2015-Jun-29 13:11N 47°40' W 122°13'0 0.0
2015-Jun-29 12:33N 47°40' W 122°13'0 0.0
2015-Jun-29 11:33N 47°40' W 122°13'0 0.0
2015-Jun-29 10:33N 47°40' W 122°13'0 0.0
2015-Jun-29 09:33N 47°40' W 122°13'0 0.0
2015-Jun-29 08:33N 47°40' W 122°13'0 0.0
2015-Jun-29 07:33N 47°40' W 122°13'0 0.0
2015-Jun-29 06:33N 47°40' W 122°13'0 0.0
2015-Jun-29 05:33N 47°40' W 122°13'0 0.0
2015-Jun-29 04:33N 47°40' W 122°13'0 0.0
2015-Jun-29 03:33N 47°40' W 122°13'0 0.0
2015-Jun-29 02:33N 47°40' W 122°13'0 0.0
2015-Jun-29 01:32N 47°40' W 122°13'0 0.0
2015-Jun-29 00:33N 47°40' W 122°13'3 3.2
2015-Jun-28 23:31N 47°38' W 122°16'3 3.4
2015-Jun-28 22:33N 47°40' W 122°13'4 3.2
2015-Jun-28 21:24N 47°38' W 122°16'4 4.4
2015-Jun-28 20:33N 47°40' W 122°13'3 3.1
2015-Jun-28 19:33N 47°39' W 122°16'3 3.1
2015-Jun-28 18:33N 47°40' W 122°13'0 0.0
2015-Jun-28 17:33N 47°40' W 122°13'0 0.0
2015-Jun-28 16:32N 47°40' W 122°13'0 0.0
2015-Jun-28 15:33N 47°40' W 122°13'0 0.0
2015-Jun-28 14:32N 47°40' W 122°13'0 0.0
2015-Jun-28 13:33N 47°40' W 122°13'0 0.0
2015-Jun-28 12:33N 47°40' W 122°13'0 0.0
2015-Jun-28 11:33N 47°40' W 122°13'0 0.0
2015-Jun-28 10:33N 47°40' W 122°13'0 0.0
2015-Jun-28 09:33N 47°40' W 122°13'0 0.0
2015-Jun-28 08:33N 47°40' W 122°13'0 0.0
2015-Jun-28 07:31N 47°40' W 122°13'0 0.0
2015-Jun-28 06:31N 47°40' W 122°13'1 1.1
2015-Jun-28 05:33N 47°39' W 122°13'4 5.5
2015-Jun-28 04:47N 47°39' W 122°19'1 3.2
2015-Jun-28 04:33N 47°39' W 122°20'0 2.9
2015-Jun-28 04:31N 47°38' W 122°20'1 0.7
2015-Jun-28 03:33N 47°39' W 122°20'1 5.4
2015-Jun-28 03:20N 47°39' W 122°18'2 2.7
2015-Jun-28 02:31N 47°39' W 122°15'0 5.7
2015-Jun-28 02:30N 47°39' W 122°15'2 2.4
2015-Jun-28 01:33N 47°40' W 122°13'0 0.0
2015-Jun-28 00:33N 47°40' W 122°13'0 0.4
2015-Jun-27 23:59N 47°40' W 122°13'3 7.5
2015-Jun-27 23:33N 47°38' W 122°16'1 8.3
2015-Jun-27 23:23N 47°37' W 122°15'4 4.6
2015-Jun-27 22:33N 47°40' W 122°13'1 1.5
2015-Jun-27 21:57N 47°40' W 122°14'3 6.8
2015-Jun-27 21:33N 47°38' W 122°16'032.4
2015-Jun-27 21:33N 47°38' W 122°16'4 3.3
2015-Jun-27 20:31N 47°40' W 122°13'0 0.0
2015-Jun-27 20:22N 47°40' W 122°13'4 4.0
2015-Jun-27 19:27N 47°38' W 122°16'1 8.8
2015-Jun-27 19:21N 47°37' W 122°15'4 4.6
2015-Jun-27 18:33N 47°40' W 122°13'0 0.0
2015-Jun-27 17:12N 47°40' W 122°13'0 0.0
2015-Jun-27 16:33N 47°40' W 122°13'0 0.0
2015-Jun-27 15:33N 47°40' W 122°13'0 0.0
2015-Jun-27 14:33N 47°40' W 122°13'0 0.0
2015-Jun-27 13:33N 47°40' W 122°13'0 0.0
2015-Jun-27 12:33N 47°40' W 122°13'0 0.0
2015-Jun-27 11:33N 47°40' W 122°13'0 0.0
2015-Jun-27 10:33N 47°40' W 122°13'0 0.0
2015-Jun-27 09:33N 47°40' W 122°13'0 0.0
2015-Jun-27 08:33N 47°40' W 122°13'0 0.0
2015-Jun-27 07:33N 47°40' W 122°13'0 0.0
2015-Jun-27 06:33N 47°40' W 122°13'0 0.0
2015-Jun-27 05:33N 47°40' W 122°13'0 0.0
2015-Jun-27 04:33N 47°40' W 122°13'0 0.0
2015-Jun-27 03:32N 47°40' W 122°13'0 0.0
2015-Jun-27 02:33N 47°40' W 122°13'0 0.0
2015-Jun-27 01:33N 47°40' W 122°13'0 0.0
2015-Jun-27 00:33N 47°40' W 122°13'0 0.0
2015-Jun-26 23:33N 47°40' W 122°13'0 0.0
2015-Jun-26 22:33N 47°40' W 122°13'0 0.4
2015-Jun-26 22:14N 47°40' W 122°13'4 5.6
2015-Jun-26 21:33N 47°37' W 122°15'1 8.5
2015-Jun-26 21:29N 47°36' W 122°14'4 4.5
2015-Jun-26 20:33N 47°40' W 122°13'0 0.0
2015-Jun-26 19:33N 47°40' W 122°13'0 0.0
2015-Jun-26 18:31N 47°40' W 122°13'0 0.0
2015-Jun-26 17:33N 47°40' W 122°13'0 0.0
2015-Jun-26 16:33N 47°40' W 122°13'0 0.0
2015-Jun-26 15:33N 47°40' W 122°13'0 0.0
2015-Jun-26 14:33N 47°40' W 122°13'0 0.0
2015-Jun-26 13:33N 47°40' W 122°13'0 0.0
2015-Jun-26 12:33N 47°40' W 122°13'0 0.0
2015-Jun-26 11:33N 47°40' W 122°13'0 0.0
2015-Jun-26 10:33N 47°40' W 122°13'0 0.0
2015-Jun-26 10:06N 47°40' W 122°13'0 0.0
2015-Jun-26 09:33N 47°40' W 122°13'0 0.0
2015-Jun-26 08:33N 47°40' W 122°13'0 0.0
2015-Jun-26 07:31N 47°40' W 122°13'0 0.0
2015-Jun-26 06:49N 47°40' W 122°13'0 0.0
2015-Jun-26 06:32N 47°40' W 122°13'0 0.0
2015-Jun-26 06:23N 47°40' W 122°13'0 0.0
2015-Jun-26 05:33N 47°40' W 122°13'0 0.1
2015-Jun-26 04:33N 47°40' W 122°13'1 7.6
2015-Jun-26 04:27N 47°40' W 122°14'5 5.5
2015-Jun-26 03:33N 47°38' W 122°20'0 3.2
2015-Jun-26 03:31N 47°38' W 122°20'1 0.9
2015-Jun-26 02:33N 47°39' W 122°20'0 5.9
2015-Jun-26 02:31N 47°39' W 122°20'4 4.1
2015-Jun-26 01:31N 47°37' W 122°14'0 7.4
2015-Jun-26 01:30N 47°37' W 122°15'4 4.0
2015-Jun-26 00:33N 47°38' W 122°20'0 0.8
2015-Jun-26 00:14N 47°38' W 122°20'0 0.0
2015-Jun-25 23:22N 47°38' W 122°20'0 0.0
2015-Jun-25 23:18N 47°38' W 122°20'1 1.4
2015-Jun-25 22:32N 47°39' W 122°21'0 0.0
2015-Jun-25 22:32N 47°39' W 122°21'1 1.1
2015-Jun-25 21:32N 47°39' W 122°19'0 0.0
2015-Jun-25 21:32N 47°39' W 122°19'5 4.8
2015-Jun-25 20:33N 47°40' W 122°13'0 0.0
2015-Jun-25 20:29N 47°40' W 122°13'0 0.0
2015-Jun-25 19:32N 47°40' W 122°13'0 0.0
2015-Jun-25 18:33N 47°40' W 122°13'0 0.0
2015-Jun-25 17:33N 47°40' W 122°13'0 0.0
2015-Jun-25 17:12N 47°40' W 122°13'0 0.0
2015-Jun-25 16:32N 47°40' W 122°13'0 0.0
2015-Jun-25 16:02N 47°40' W 122°13'0 0.0
2015-Jun-25 15:33N 47°40' W 122°13'0 0.1
2015-Jun-25 15:28N 47°40' W 122°13'0 0.0
2015-Jun-25 14:33N 47°40' W 122°13'0 0.0
2015-Jun-25 14:27N 47°40' W 122°13'0 0.0
2015-Jun-25 13:33N 47°40' W 122°13'0 0.0
2015-Jun-25 13:30N 47°40' W 122°13'0 0.0
2015-Jun-25 12:16N 47°40' W 122°13'0 0.0
2015-Jun-25 11:59N 47°40' W 122°13'0 0.0
2015-Jun-25 11:33N 47°40' W 122°13'0 0.0
2015-Jun-25 11:20N 47°40' W 122°13'0 0.0
2015-Jun-25 10:33N 47°40' W 122°13'0 0.0
2015-Jun-25 10:24N 47°40' W 122°13'0 0.0
2015-Jun-25 09:33N 47°40' W 122°13'0 0.0
2015-Jun-25 09:28N 47°40' W 122°13'0 0.0
2015-Jun-25 08:33N 47°40' W 122°13'0 0.0
2015-Jun-25 08:29N 47°40' W 122°13'0 0.0
2015-Jun-25 07:33N 47°40' W 122°13'0 0.0
2015-Jun-25 07:13N 47°40' W 122°13'0 0.0
2015-Jun-25 06:32N 47°40' W 122°13'0 0.0
2015-Jun-25 06:32N 47°40' W 122°13'0 0.0
2015-Jun-25 05:33N 47°40' W 122°13'0 0.0
2015-Jun-25 05:27N 47°40' W 122°13'0 0.0
2015-Jun-25 04:32N 47°40' W 122°13'0 0.0
2015-Jun-25 04:21N 47°40' W 122°13'0 0.0
2015-Jun-25 03:33N 47°40' W 122°13'0 0.0
2015-Jun-25 03:24N 47°40' W 122°13'0 0.0
2015-Jun-25 02:33N 47°40' W 122°13'0 0.0
2015-Jun-25 01:59N 47°40' W 122°13'0 0.0
2015-Jun-25 01:33N 47°40' W 122°13'0 3.5
2015-Jun-25 01:28N 47°41' W 122°13'2 1.8
2015-Jun-25 00:32N 47°39' W 122°14'2 5.2
2015-Jun-25 00:11N 47°40' W 122°13'0 0.0
2015-Jun-24 23:33N 47°40' W 122°13'0 0.0
2015-Jun-24 22:51N 47°40' W 122°13'0 0.0
2015-Jun-24 22:33N 47°40' W 122°13'0 0.0
2015-Jun-24 22:00N 47°40' W 122°13'0 0.0
2015-Jun-24 21:31N 47°40' W 122°13'0 0.0
2015-Jun-24 20:33N 47°40' W 122°13'0 0.0
2015-Jun-24 19:32N 47°40' W 122°13'0 0.0
2015-Jun-24 18:33N 47°40' W 122°13'0 0.0
2015-Jun-24 17:38N 47°40' W 122°13'0 0.1
2015-Jun-24 17:33N 47°40' W 122°13'0 0.0
2015-Jun-24 16:33N 47°40' W 122°13'0 0.0
2015-Jun-24 15:36N 47°40' W 122°13'0 0.0
2015-Jun-24 15:33N 47°40' W 122°13'0 0.0
2015-Jun-24 15:16N 47°40' W 122°13'0 0.0
2015-Jun-24 14:33N 47°40' W 122°13'0 0.0
2015-Jun-24 14:15N 47°40' W 122°13'0 0.0
2015-Jun-24 13:33N 47°40' W 122°13'0 0.0
2015-Jun-24 12:44N 47°40' W 122°13'0 0.0
2015-Jun-24 12:33N 47°40' W 122°13'0 0.0
2015-Jun-24 12:14N 47°40' W 122°13'0 0.0
2015-Jun-24 11:33N 47°40' W 122°13'0 0.0
2015-Jun-24 11:29N 47°40' W 122°13'0 0.0
2015-Jun-24 10:33N 47°40' W 122°13'0 0.0
2015-Jun-24 10:23N 47°40' W 122°13'0 0.0
2015-Jun-24 09:32N 47°40' W 122°13'0 0.0
2015-Jun-24 08:33N 47°40' W 122°13'0 0.0
2015-Jun-24 08:27N 47°40' W 122°13'0 0.0
2015-Jun-24 07:33N 47°40' W 122°13'0 0.0
2015-Jun-24 07:26N 47°40' W 122°13'0 0.0
2015-Jun-24 06:33N 47°40' W 122°13'0 0.0
2015-Jun-24 05:33N 47°40' W 122°13'0 0.0
2015-Jun-24 04:32N 47°40' W 122°13'0 0.0
2015-Jun-24 03:33N 47°40' W 122°13'0 0.0
2015-Jun-24 02:33N 47°40' W 122°13'0 0.0
2015-Jun-24 01:33N 47°40' W 122°13'0 0.0
2015-Jun-24 00:33N 47°40' W 122°13'0 0.0
2015-Jun-24 00:25N 47°40' W 122°13'0 0.0
2015-Jun-23 23:33N 47°40' W 122°13'0 0.0
2015-Jun-23 22:50N 47°40' W 122°13'0 0.0
2015-Jun-23 22:33N 47°40' W 122°13'0 0.0
2015-Jun-23 21:30N 47°40' W 122°13'0 0.0
2015-Jun-23 20:33N 47°40' W 122°13'0 0.0
2015-Jun-23 19:33N 47°40' W 122°13'  

Dump ship's entire track history